RYR86DZ EBCI-LFMU
Flight info
| Callsign | RYR86DZ |
|---|---|
| Flight time | 1h 10m |
| Altitude | 37000 |
| Route | CIV Y50 REM B3 VATRI G40 TRO B373 MOU A27 MEN J27 AFRIC |
| Aircraft | B738/M-SDE3FGILRWY/SB1 |
Departure
| Time | 2026-04-21 10:00 |
|---|---|
| Airport | Brussels South Charleroi Airport (EBCI) |
Arrival
| Time | 2026-04-21 11:11 |
|---|---|
| Airport | Béziers Vias airport (LFMU) |
| Time | Latitude | Longitude | Altitude | Speed | Heading |
|---|---|---|---|---|---|
| 2026-04-21 09:24 | 50.46888 | 4.47168 | 622 ft | 0 kts | 335° |
| 2026-04-21 09:50 | 50.46859 | 4.47189 | 625 ft | 4 kts | 339° |
| 2026-04-21 09:51 | 50.46839 | 4.47190 | 626 ft | 4 kts | 49° |
| 2026-04-21 09:51 | 50.46827 | 4.47157 | 623 ft | 4 kts | 65° |
| 2026-04-21 09:51 | 50.46824 | 4.47147 | 622 ft | 1 kts | 65° |
| 2026-04-21 09:54 | 50.46826 | 4.47152 | 612 ft | 3 kts | 65° |
| 2026-04-21 09:54 | 50.46844 | 4.47215 | 620 ft | 8 kts | 66° |
| 2026-04-21 09:54 | 50.46850 | 4.47298 | 612 ft | 8 kts | 110° |
| 2026-04-21 09:55 | 50.46808 | 4.47347 | 615 ft | 8 kts | 153° |
| 2026-04-21 09:55 | 50.46761 | 4.47326 | 615 ft | 9 kts | 233° |
| 2026-04-21 09:55 | 50.46719 | 4.47186 | 616 ft | 19 kts | 245° |
| 2026-04-21 09:55 | 50.46651 | 4.46951 | 624 ft | 27 kts | 245° |
| 2026-04-21 09:56 | 50.46597 | 4.46767 | 620 ft | 28 kts | 245° |
| 2026-04-21 09:56 | 50.46518 | 4.46497 | 622 ft | 26 kts | 244° |
| 2026-04-21 09:56 | 50.46444 | 4.46244 | 615 ft | 25 kts | 247° |
| 2026-04-21 09:56 | 50.46376 | 4.46007 | 621 ft | 23 kts | 245° |
| 2026-04-21 09:57 | 50.46311 | 4.45782 | 613 ft | 23 kts | 246° |
| 2026-04-21 09:57 | 50.46240 | 4.45537 | 615 ft | 27 kts | 245° |
| 2026-04-21 09:57 | 50.46162 | 4.45268 | 623 ft | 27 kts | 245° |
| 2026-04-21 09:57 | 50.46088 | 4.45013 | 623 ft | 25 kts | 246° |
| 2026-04-21 09:58 | 50.46017 | 4.44776 | 621 ft | 23 kts | 244° |
| 2026-04-21 09:58 | 50.45953 | 4.44549 | 617 ft | 22 kts | 245° |
| 2026-04-21 09:58 | 50.45871 | 4.44347 | 625 ft | 22 kts | 231° |
| 2026-04-21 09:58 | 50.45779 | 4.44163 | 623 ft | 19 kts | 232° |
| 2026-04-21 09:59 | 50.45705 | 4.44014 | 624 ft | 12 kts | 231° |
| 2026-04-21 09:59 | 50.45644 | 4.43993 | 618 ft | 9 kts | 147° |
| 2026-04-21 09:59 | 50.45637 | 4.44082 | 621 ft | 8 kts | 69° |
| 2026-04-21 09:59 | 50.45666 | 4.44186 | 616 ft | 25 kts | 66° |
| 2026-04-21 10:00 | 50.45844 | 4.44795 | 619 ft | 96 kts | 65° |
| 2026-04-21 10:00 | 50.46206 | 4.46047 | 640 ft | 151 kts | 65° |
| 2026-04-21 10:00 | 50.46635 | 4.47634 | 1303 ft | 161 kts | 68° |
| 2026-04-21 10:00 | 50.47162 | 4.49224 | 2085 ft | 171 kts | 50° |
| 2026-04-21 10:01 | 50.48309 | 4.50066 | 2517 ft | 197 kts | 17° |
| 2026-04-21 10:01 | 50.49548 | 4.50945 | 2974 ft | 199 kts | 45° |
| 2026-04-21 10:01 | 50.50315 | 4.52736 | 3516 ft | 202 kts | 71° |
| 2026-04-21 10:01 | 50.50400 | 4.55017 | 3748 ft | 223 kts | 103° |
| 2026-04-21 10:02 | 50.48103 | 4.58577 | 4802 ft | 260 kts | 162° |
| 2026-04-21 10:02 | 50.46277 | 4.58535 | 5712 ft | 269 kts | 189° |
| 2026-04-21 10:02 | 50.44468 | 4.57696 | 6572 ft | 273 kts | 194° |
| 2026-04-21 10:03 | 50.42674 | 4.56762 | 7312 ft | 278 kts | 194° |
| 2026-04-21 10:03 | 50.40826 | 4.55793 | 8068 ft | 282 kts | 194° |
| 2026-04-21 10:03 | 50.38950 | 4.54826 | 8820 ft | 286 kts | 194° |
| 2026-04-21 10:03 | 50.37038 | 4.53860 | 9547 ft | 292 kts | 194° |
| 2026-04-21 10:04 | 50.35089 | 4.52894 | 10266 ft | 296 kts | 194° |
| 2026-04-21 10:04 | 50.33092 | 4.51917 | 10744 ft | 310 kts | 194° |
| 2026-04-21 10:04 | 50.30955 | 4.50887 | 10933 ft | 332 kts | 194° |
| 2026-04-21 10:04 | 50.28699 | 4.49805 | 11375 ft | 345 kts | 194° |
| 2026-04-21 10:05 | 50.26385 | 4.48699 | 12042 ft | 349 kts | 194° |
| 2026-04-21 10:05 | 50.24050 | 4.47585 | 12771 ft | 353 kts | 194° |
| 2026-04-21 10:05 | 50.21686 | 4.46462 | 13513 ft | 358 kts | 195° |
| 2026-04-21 10:05 | 50.19288 | 4.45325 | 14244 ft | 362 kts | 195° |
| 2026-04-21 10:06 | 50.16868 | 4.44180 | 14930 ft | 366 kts | 195° |
| 2026-04-21 10:06 | 50.14424 | 4.43026 | 15647 ft | 369 kts | 195° |
| 2026-04-21 10:06 | 50.11951 | 4.41861 | 16361 ft | 372 kts | 195° |
| 2026-04-21 10:06 | 50.09459 | 4.40689 | 17084 ft | 376 kts | 195° |
| 2026-04-21 10:07 | 50.06950 | 4.39510 | 17858 ft | 378 kts | 196° |
| 2026-04-21 10:07 | 50.04415 | 4.38319 | 18565 ft | 381 kts | 196° |
| 2026-04-21 10:07 | 50.01848 | 4.37114 | 19092 ft | 388 kts | 197° |
| 2026-04-21 10:07 | 49.99258 | 4.35900 | 19738 ft | 390 kts | 197° |
| 2026-04-21 10:08 | 49.96663 | 4.34667 | 20453 ft | 390 kts | 198° |
| 2026-04-21 10:08 | 49.94060 | 4.33352 | 21019 ft | 395 kts | 199° |
| 2026-04-21 10:08 | 49.91427 | 4.32019 | 21525 ft | 401 kts | 199° |
| 2026-04-21 10:08 | 49.88755 | 4.30701 | 22109 ft | 405 kts | 200° |
| 2026-04-21 10:09 | 49.86051 | 4.29406 | 22661 ft | 409 kts | 200° |
| 2026-04-21 10:09 | 49.83310 | 4.28119 | 23199 ft | 414 kts | 200° |
| 2026-04-21 10:09 | 49.80540 | 4.26837 | 23734 ft | 418 kts | 201° |
| 2026-04-21 10:09 | 49.77741 | 4.25552 | 24180 ft | 421 kts | 201° |
| 2026-04-21 10:10 | 49.74920 | 4.24264 | 24636 ft | 424 kts | 201° |
| 2026-04-21 10:10 | 49.72118 | 4.22987 | 25082 ft | 427 kts | 201° |
| 2026-04-21 10:10 | 49.69257 | 4.21686 | 25509 ft | 430 kts | 201° |
| 2026-04-21 10:10 | 49.66377 | 4.20376 | 25912 ft | 433 kts | 204° |
| 2026-04-21 10:11 | 49.63469 | 4.19051 | 26294 ft | 438 kts | 204° |
| 2026-04-21 10:11 | 49.60539 | 4.17720 | 26697 ft | 441 kts | 204° |
| 2026-04-21 10:11 | 49.57586 | 4.16383 | 27117 ft | 443 kts | 204° |
| 2026-04-21 10:11 | 49.54618 | 4.15040 | 27527 ft | 446 kts | 204° |
| 2026-04-21 10:12 | 49.51630 | 4.13690 | 27915 ft | 449 kts | 205° |
| 2026-04-21 10:12 | 49.48619 | 4.12329 | 28290 ft | 452 kts | 205° |
| 2026-04-21 10:12 | 49.45590 | 4.10963 | 28669 ft | 455 kts | 205° |
| 2026-04-21 10:12 | 49.42542 | 4.09591 | 29035 ft | 457 kts | 206° |
| 2026-04-21 10:13 | 49.39487 | 4.08218 | 29431 ft | 459 kts | 206° |
| 2026-04-21 10:13 | 49.36412 | 4.06835 | 29775 ft | 462 kts | 206° |
| 2026-04-21 10:13 | 49.33312 | 4.05457 | 30099 ft | 466 kts | 204° |
| 2026-04-21 10:13 | 49.30079 | 4.04508 | 30381 ft | 481 kts | 195° |
| 2026-04-21 10:14 | 49.26683 | 4.04358 | 30667 ft | 493 kts | 187° |
| 2026-04-21 10:14 | 49.23248 | 4.04535 | 30966 ft | 495 kts | 186° |
| 2026-04-21 10:14 | 49.19825 | 4.04732 | 31496 ft | 489 kts | 186° |
| 2026-04-21 10:14 | 49.16441 | 4.04863 | 32011 ft | 485 kts | 187° |
| 2026-04-21 10:15 | 49.13073 | 4.04942 | 32379 ft | 484 kts | 187° |
| 2026-04-21 10:15 | 49.09700 | 4.05012 | 32688 ft | 485 kts | 187° |
| 2026-04-21 10:15 | 49.06322 | 4.05092 | 33019 ft | 485 kts | 187° |
| 2026-04-21 10:15 | 49.02950 | 4.05180 | 33418 ft | 484 kts | 186° |
| 2026-04-21 10:16 | 48.99588 | 4.05270 | 33800 ft | 482 kts | 186° |
| 2026-04-21 10:16 | 48.96246 | 4.05362 | 34251 ft | 479 kts | 186° |
| 2026-04-21 10:16 | 48.92918 | 4.05450 | 34556 ft | 478 kts | 186° |
| 2026-04-21 10:16 | 48.89594 | 4.05535 | 34813 ft | 478 kts | 186° |
| 2026-04-21 10:17 | 48.86264 | 4.05620 | 35084 ft | 478 kts | 186° |
| 2026-04-21 10:17 | 48.82941 | 4.05706 | 35403 ft | 477 kts | 185° |
| 2026-04-21 10:17 | 48.79629 | 4.05793 | 35719 ft | 475 kts | 185° |
| 2026-04-21 10:17 | 48.76324 | 4.05866 | 36009 ft | 474 kts | 185° |
| 2026-04-21 10:18 | 48.73029 | 4.05922 | 36277 ft | 474 kts | 185° |
| 2026-04-21 10:18 | 48.69739 | 4.05973 | 36584 ft | 472 kts | 185° |
| 2026-04-21 10:18 | 48.66458 | 4.06024 | 36897 ft | 470 kts | 185° |
| 2026-04-21 10:18 | 48.63188 | 4.06078 | 37167 ft | 470 kts | 184° |
| 2026-04-21 10:19 | 48.59904 | 4.06132 | 37164 ft | 475 kts | 184° |
| 2026-04-21 10:19 | 48.53331 | 4.05544 | 37161 ft | 471 kts | 197° |
| 2026-04-21 10:20 | 48.46923 | 4.03393 | 37162 ft | 474 kts | 199° |
| 2026-04-21 10:20 | 48.40465 | 4.01214 | 37163 ft | 477 kts | 198° |
| 2026-04-21 10:21 | 48.34005 | 3.99138 | 37142 ft | 469 kts | 198° |
| 2026-04-21 10:21 | 48.27691 | 3.97131 | 37153 ft | 462 kts | 198° |
| 2026-04-21 10:22 | 48.21349 | 3.95348 | 37159 ft | 466 kts | 194° |
| 2026-04-21 10:22 | 48.14907 | 3.94021 | 37132 ft | 468 kts | 193° |
| 2026-04-21 10:23 | 48.08457 | 3.92678 | 37141 ft | 468 kts | 194° |
| 2026-04-21 10:23 | 48.02012 | 3.91276 | 37125 ft | 469 kts | 194° |
| 2026-04-21 10:24 | 47.95555 | 3.89865 | 37120 ft | 469 kts | 194° |
| 2026-04-21 10:24 | 47.89144 | 3.88468 | 37108 ft | 469 kts | 194° |
| 2026-04-21 10:25 | 47.82694 | 3.87066 | 37109 ft | 468 kts | 194° |
| 2026-04-21 10:25 | 47.76251 | 3.85669 | 37102 ft | 467 kts | 194° |
| 2026-04-21 10:26 | 47.69821 | 3.84279 | 37095 ft | 466 kts | 194° |
| 2026-04-21 10:26 | 47.63406 | 3.82895 | 37092 ft | 465 kts | 194° |
| 2026-04-21 10:27 | 47.57005 | 3.81517 | 37088 ft | 464 kts | 194° |
| 2026-04-21 10:27 | 47.50615 | 3.80140 | 37071 ft | 463 kts | 194° |
| 2026-04-21 10:28 | 47.44247 | 3.78766 | 37086 ft | 462 kts | 194° |
| 2026-04-21 10:28 | 47.37885 | 3.77393 | 37073 ft | 462 kts | 194° |
| 2026-04-21 10:29 | 47.31529 | 3.76027 | 37050 ft | 461 kts | 193° |
| 2026-04-21 10:29 | 47.25178 | 3.74664 | 37062 ft | 461 kts | 193° |
| 2026-04-21 10:30 | 47.18826 | 3.73306 | 37065 ft | 462 kts | 193° |
| 2026-04-21 10:30 | 47.12468 | 3.71950 | 37063 ft | 462 kts | 193° |
| 2026-04-21 10:31 | 47.06102 | 3.70595 | 37059 ft | 462 kts | 193° |
| 2026-04-21 10:31 | 46.99727 | 3.69241 | 37055 ft | 463 kts | 193° |
| 2026-04-21 10:32 | 46.93353 | 3.67891 | 37054 ft | 463 kts | 193° |
| 2026-04-21 10:32 | 46.86971 | 3.66561 | 37040 ft | 463 kts | 193° |
| 2026-04-21 10:33 | 46.80594 | 3.65245 | 37048 ft | 462 kts | 193° |
| 2026-04-21 10:33 | 46.74228 | 3.63929 | 37050 ft | 462 kts | 193° |
| 2026-04-21 10:34 | 46.68021 | 3.62108 | 37048 ft | 453 kts | 204° |
| 2026-04-21 10:34 | 46.62164 | 3.59121 | 37048 ft | 452 kts | 205° |
| 2026-04-21 10:35 | 46.56224 | 3.56126 | 37044 ft | 452 kts | 204° |
| 2026-04-21 10:35 | 46.50264 | 3.53225 | 37029 ft | 452 kts | 204° |
| 2026-04-21 10:36 | 46.44300 | 3.50357 | 37042 ft | 451 kts | 204° |
| 2026-04-21 10:36 | 46.38339 | 3.47505 | 37049 ft | 451 kts | 204° |
| 2026-04-21 10:37 | 46.32384 | 3.44656 | 37047 ft | 451 kts | 204° |
| 2026-04-21 10:37 | 46.26428 | 3.41811 | 37044 ft | 451 kts | 204° |
| 2026-04-21 10:38 | 46.20472 | 3.38973 | 37049 ft | 451 kts | 204° |
| 2026-04-21 10:38 | 46.14513 | 3.36138 | 37051 ft | 451 kts | 204° |
| 2026-04-21 10:39 | 46.08557 | 3.33306 | 37053 ft | 451 kts | 204° |
| 2026-04-21 10:39 | 46.02600 | 3.30479 | 37045 ft | 451 kts | 204° |
| 2026-04-21 10:40 | 45.96640 | 3.27657 | 37030 ft | 451 kts | 204° |
| 2026-04-21 10:40 | 45.90680 | 3.24842 | 37038 ft | 451 kts | 204° |
| 2026-04-21 10:41 | 45.84727 | 3.22035 | 37050 ft | 450 kts | 204° |
| 2026-04-21 10:41 | 45.78718 | 3.19438 | 37038 ft | 455 kts | 196° |
| 2026-04-21 10:42 | 45.72336 | 3.18849 | 37029 ft | 462 kts | 186° |
| 2026-04-21 10:42 | 45.66989 | 3.18812 | 37007 ft | 462 kts | 185° |
| 2026-04-21 10:43 | 45.60562 | 3.18734 | 37018 ft | 461 kts | 186° |
| 2026-04-21 10:43 | 45.53102 | 3.18567 | 36998 ft | 461 kts | 186° |
| 2026-04-21 10:44 | 45.47727 | 3.18429 | 36938 ft | 462 kts | 186° |
| 2026-04-21 10:44 | 45.44487 | 3.18343 | 36433 ft | 466 kts | 186° |
| 2026-04-21 10:44 | 45.41255 | 3.18262 | 35873 ft | 464 kts | 186° |
| 2026-04-21 10:44 | 45.38030 | 3.18183 | 35263 ft | 464 kts | 186° |
| 2026-04-21 10:45 | 45.34805 | 3.18103 | 34633 ft | 464 kts | 186° |
| 2026-04-21 10:45 | 45.31616 | 3.18024 | 33979 ft | 465 kts | 186° |
| 2026-04-21 10:45 | 45.28339 | 3.17942 | 33223 ft | 465 kts | 186° |
| 2026-04-21 10:45 | 45.25108 | 3.17863 | 32531 ft | 464 kts | 186° |
| 2026-04-21 10:46 | 45.21924 | 3.17785 | 31993 ft | 461 kts | 186° |
| 2026-04-21 10:46 | 45.18736 | 3.17708 | 31499 ft | 457 kts | 186° |
| 2026-04-21 10:46 | 45.15573 | 3.17626 | 31003 ft | 453 kts | 186° |
| 2026-04-21 10:46 | 45.12438 | 3.17550 | 30514 ft | 449 kts | 185° |
| 2026-04-21 10:47 | 45.09327 | 3.17467 | 30041 ft | 445 kts | 186° |
| 2026-04-21 10:47 | 45.06250 | 3.17318 | 29515 ft | 441 kts | 187° |
| 2026-04-21 10:47 | 45.03202 | 3.17133 | 29020 ft | 436 kts | 187° |
| 2026-04-21 10:47 | 45.00191 | 3.16951 | 28538 ft | 431 kts | 187° |
| 2026-04-21 10:48 | 44.97207 | 3.16782 | 28054 ft | 427 kts | 187° |
| 2026-04-21 10:48 | 44.94250 | 3.16639 | 27557 ft | 424 kts | 186° |
| 2026-04-21 10:48 | 44.91308 | 3.16575 | 27107 ft | 421 kts | 185° |
| 2026-04-21 10:48 | 44.88393 | 3.16548 | 26624 ft | 418 kts | 185° |
| 2026-04-21 10:49 | 44.85492 | 3.16528 | 26162 ft | 415 kts | 185° |
| 2026-04-21 10:49 | 44.82615 | 3.16503 | 25696 ft | 412 kts | 185° |
| 2026-04-21 10:49 | 44.79753 | 3.16472 | 25233 ft | 410 kts | 185° |
| 2026-04-21 10:49 | 44.76909 | 3.16434 | 24778 ft | 408 kts | 185° |
| 2026-04-21 10:50 | 44.74078 | 3.16393 | 24328 ft | 405 kts | 185° |
| 2026-04-21 10:50 | 44.71264 | 3.16352 | 23873 ft | 404 kts | 185° |
| 2026-04-21 10:50 | 44.68464 | 3.16311 | 23382 ft | 402 kts | 185° |
| 2026-04-21 10:50 | 44.65669 | 3.16270 | 22864 ft | 400 kts | 185° |
| 2026-04-21 10:51 | 44.62890 | 3.16231 | 22378 ft | 398 kts | 185° |
| 2026-04-21 10:51 | 44.60153 | 3.16000 | 21915 ft | 391 kts | 193° |
| 2026-04-21 10:51 | 44.57526 | 3.15179 | 21480 ft | 384 kts | 199° |
| 2026-04-21 10:51 | 44.54948 | 3.14239 | 21020 ft | 381 kts | 199° |
| 2026-04-21 10:52 | 44.52393 | 3.13293 | 20578 ft | 379 kts | 199° |
| 2026-04-21 10:52 | 44.49855 | 3.12360 | 20150 ft | 376 kts | 199° |
| 2026-04-21 10:52 | 44.47359 | 3.11454 | 19720 ft | 375 kts | 199° |
| 2026-04-21 10:52 | 44.44840 | 3.10549 | 19274 ft | 373 kts | 198° |
| 2026-04-21 10:53 | 44.42330 | 3.09654 | 18870 ft | 371 kts | 199° |
| 2026-04-21 10:53 | 44.39822 | 3.08764 | 18408 ft | 372 kts | 198° |
| 2026-04-21 10:53 | 44.37318 | 3.07878 | 17911 ft | 371 kts | 198° |
| 2026-04-21 10:53 | 44.34818 | 3.06996 | 17462 ft | 369 kts | 198° |
| 2026-04-21 10:54 | 44.32336 | 3.06122 | 17017 ft | 367 kts | 198° |
| 2026-04-21 10:54 | 44.29865 | 3.05251 | 16577 ft | 365 kts | 198° |
| 2026-04-21 10:54 | 44.27409 | 3.04387 | 16141 ft | 363 kts | 198° |
| 2026-04-21 10:54 | 44.24966 | 3.03528 | 15733 ft | 361 kts | 198° |
| 2026-04-21 10:55 | 44.22538 | 3.02673 | 15346 ft | 359 kts | 198° |
| 2026-04-21 10:55 | 44.20149 | 3.01836 | 14973 ft | 348 kts | 198° |
| 2026-04-21 10:55 | 44.17819 | 3.01019 | 14630 ft | 343 kts | 198° |
| 2026-04-21 10:55 | 44.15512 | 3.00209 | 14293 ft | 341 kts | 198° |
| 2026-04-21 10:56 | 44.13220 | 2.99405 | 13945 ft | 339 kts | 198° |
| 2026-04-21 10:56 | 44.10941 | 2.98606 | 13565 ft | 337 kts | 198° |
| 2026-04-21 10:56 | 44.08673 | 2.97795 | 13137 ft | 335 kts | 199° |
| 2026-04-21 10:56 | 44.06427 | 2.96996 | 12803 ft | 332 kts | 198° |
| 2026-04-21 10:57 | 44.04194 | 2.96222 | 12436 ft | 330 kts | 198° |
| 2026-04-21 10:57 | 44.01981 | 2.95461 | 12109 ft | 326 kts | 198° |
| 2026-04-21 10:57 | 43.99789 | 2.94699 | 11775 ft | 323 kts | 198° |
| 2026-04-21 10:57 | 43.97616 | 2.93941 | 11435 ft | 321 kts | 198° |
| 2026-04-21 10:58 | 43.95456 | 2.93187 | 11093 ft | 319 kts | 198° |
| 2026-04-21 10:58 | 43.93315 | 2.92440 | 10782 ft | 317 kts | 198° |
| 2026-04-21 10:58 | 43.91179 | 2.91695 | 10456 ft | 316 kts | 198° |
| 2026-04-21 10:58 | 43.89058 | 2.90960 | 10240 ft | 311 kts | 198° |
| 2026-04-21 10:59 | 43.86987 | 2.90238 | 10094 ft | 303 kts | 198° |
| 2026-04-21 10:59 | 43.84970 | 2.89534 | 9970 ft | 295 kts | 198° |
| 2026-04-21 10:59 | 43.83014 | 2.88854 | 9706 ft | 293 kts | 198° |
| 2026-04-21 10:59 | 43.81038 | 2.88166 | 9410 ft | 292 kts | 198° |
| 2026-04-21 11:00 | 43.79070 | 2.87485 | 9125 ft | 291 kts | 196° |
| 2026-04-21 11:00 | 43.77025 | 2.87385 | 8814 ft | 295 kts | 170° |
| 2026-04-21 11:00 | 43.75133 | 2.88348 | 8579 ft | 295 kts | 156° |
| 2026-04-21 11:00 | 43.73301 | 2.89620 | 8286 ft | 295 kts | 154° |
| 2026-04-21 11:01 | 43.71457 | 2.90952 | 7993 ft | 295 kts | 154° |
| 2026-04-21 11:01 | 43.69668 | 2.92250 | 7679 ft | 293 kts | 154° |
| 2026-04-21 11:01 | 43.67878 | 2.93543 | 7431 ft | 287 kts | 154° |
| 2026-04-21 11:02 | 43.64412 | 2.96017 | 6878 ft | 274 kts | 154° |
| 2026-04-21 11:02 | 43.62735 | 2.97201 | 6632 ft | 267 kts | 155° |
| 2026-04-21 11:02 | 43.61093 | 2.98365 | 6368 ft | 263 kts | 155° |
| 2026-04-21 11:02 | 43.59463 | 2.99507 | 6116 ft | 263 kts | 155° |
| 2026-04-21 11:03 | 43.57837 | 3.00675 | 5849 ft | 264 kts | 155° |
| 2026-04-21 11:03 | 43.56197 | 3.01820 | 5570 ft | 264 kts | 155° |
| 2026-04-21 11:03 | 43.54555 | 3.02954 | 5309 ft | 264 kts | 155° |
| 2026-04-21 11:03 | 43.52910 | 3.04094 | 5040 ft | 264 kts | 154° |
| 2026-04-21 11:04 | 43.51280 | 3.05230 | 4832 ft | 261 kts | 154° |
| 2026-04-21 11:04 | 43.49662 | 3.06356 | 4564 ft | 260 kts | 154° |
| 2026-04-21 11:04 | 43.48052 | 3.07480 | 4331 ft | 259 kts | 154° |
| 2026-04-21 11:04 | 43.46445 | 3.08598 | 4158 ft | 257 kts | 154° |
| 2026-04-21 11:05 | 43.44862 | 3.09699 | 4003 ft | 252 kts | 153° |
| 2026-04-21 11:05 | 43.43328 | 3.10767 | 3920 ft | 243 kts | 154° |
| 2026-04-21 11:05 | 43.41833 | 3.11805 | 3805 ft | 238 kts | 155° |
| 2026-04-21 11:05 | 43.40268 | 3.12282 | 3722 ft | 227 kts | 185° |
| 2026-04-21 11:06 | 43.38727 | 3.12102 | 3620 ft | 221 kts | 185° |
| 2026-04-21 11:06 | 43.37217 | 3.11954 | 3412 ft | 214 kts | 185° |
| 2026-04-21 11:06 | 43.35761 | 3.11799 | 3210 ft | 205 kts | 183° |
| 2026-04-21 11:06 | 43.34433 | 3.12257 | 2964 ft | 197 kts | 141° |
| 2026-04-21 11:07 | 43.33768 | 3.13773 | 2824 ft | 183 kts | 103° |
| 2026-04-21 11:07 | 43.33533 | 3.15484 | 2627 ft | 182 kts | 97° |
| 2026-04-21 11:07 | 43.33390 | 3.17183 | 2442 ft | 176 kts | 95° |
| 2026-04-21 11:07 | 43.33283 | 3.18810 | 2278 ft | 168 kts | 95° |
| 2026-04-21 11:08 | 43.33188 | 3.20395 | 2067 ft | 166 kts | 95° |
| 2026-04-21 11:08 | 43.33099 | 3.21954 | 1852 ft | 161 kts | 94° |
| 2026-04-21 11:08 | 43.33012 | 3.23465 | 1660 ft | 157 kts | 94° |
| 2026-04-21 11:08 | 43.32924 | 3.24989 | 1427 ft | 161 kts | 94° |
| 2026-04-21 11:09 | 43.32841 | 3.26476 | 1251 ft | 151 kts | 95° |
| 2026-04-21 11:09 | 43.32761 | 3.27908 | 1033 ft | 148 kts | 94° |
| 2026-04-21 11:09 | 43.32682 | 3.29335 | 809 ft | 149 kts | 96° |
| 2026-04-21 11:09 | 43.32612 | 3.30760 | 620 ft | 150 kts | 97° |
| 2026-04-21 11:10 | 43.32520 | 3.32164 | 426 ft | 150 kts | 96° |
| 2026-04-21 11:10 | 43.32446 | 3.33582 | 201 ft | 147 kts | 97° |
| 2026-04-21 11:10 | 43.32364 | 3.34965 | 58 ft | 137 kts | 93° |
| 2026-04-21 11:10 | 43.32309 | 3.35972 | 49 ft | 74 kts | 94° |
| 2026-04-21 11:11 | 43.32277 | 3.36530 | 50 ft | 31 kts | 95° |
| 2026-04-21 11:11 | 43.32258 | 3.36683 | 50 ft | 10 kts | 123° |
| 2026-04-21 11:11 | 43.32259 | 3.36731 | 51 ft | 5 kts | 357° |
| 2026-04-21 11:11 | 43.32267 | 3.36678 | 47 ft | 7 kts | 276° |
| 2026-04-21 11:12 | 43.32277 | 3.36539 | 50 ft | 23 kts | 274° |
| 2026-04-21 11:12 | 43.32290 | 3.36311 | 51 ft | 23 kts | 275° |
| 2026-04-21 11:12 | 43.32303 | 3.36094 | 48 ft | 22 kts | 274° |
| 2026-04-21 11:12 | 43.32313 | 3.35886 | 53 ft | 16 kts | 274° |
| 2026-04-21 11:13 | 43.32308 | 3.35800 | 48 ft | 7 kts | 226° |
| 2026-04-21 11:13 | 43.32258 | 3.35785 | 52 ft | 8 kts | 184° |
| 2026-04-21 11:13 | 43.32195 | 3.35778 | 51 ft | 10 kts | 186° |
| 2026-04-21 11:13 | 43.32141 | 3.35768 | 50 ft | 3 kts | 197° |
| 2026-04-21 11:14 | 43.32132 | 3.35760 | 50 ft | 5 kts | 218° |
| 2026-04-21 11:14 | 43.32124 | 3.35670 | 53 ft | 11 kts | 275° |
| 2026-04-21 11:14 | 43.32130 | 3.35573 | 57 ft | 9 kts | 279° |
| 2026-04-21 11:14 | 43.32144 | 3.35491 | 57 ft | 9 kts | 282° |
| 2026-04-21 11:15 | 43.32152 | 3.35411 | 51 ft | 8 kts | 273° |
| 2026-04-21 11:15 | 43.32168 | 3.35341 | 51 ft | 8 kts | 311° |
| 2026-04-21 11:15 | 43.32166 | 3.35303 | 53 ft | 2 kts | 227° |
| 2026-04-21 11:15 | 43.32153 | 3.35306 | 54 ft | 1 kts | 161° |
| 2026-04-21 11:16 | 43.32149 | 3.35296 | 56 ft | 1 kts | 265° |
| 2026-04-21 11:16 | 43.32160 | 3.35293 | 52 ft | 3 kts | 2° |
| 2026-04-21 11:16 | 43.32184 | 3.35309 | 55 ft | 5 kts | 46° |
| 2026-04-21 11:16 | 43.32175 | 3.35350 | 53 ft | 4 kts | 143° |
| 2026-04-21 11:17 | 43.32156 | 3.35347 | 54 ft | 0 kts | 198° |
| 2026-04-21 11:17 | 43.32147 | 3.35346 | 52 ft | 2 kts | 188° |
| 2026-04-21 11:17 | 43.32136 | 3.35344 | 54 ft | 1 kts | 186° |
| 2026-04-21 11:18 | 43.32133 | 3.35343 | 55 ft | 0 kts | 186° |